X  Fechar Dados meteorológicos de METAR da aviação     EHAM Amsterdam Airport Schiphol
Temperatura
14°C Temperatura
11°C Ponto de orvalho
82% Umidade



Vento
14 KM/H
9 MPH
4 M/S
8 NÓS



200°
SSO
Condições atuais

Leve Garoa Leve Garoa
Pressão 1006.77 (hPa) - 29.73 (inHg)
Visibilidade 6 (milha) - 9.7 (km)
Aeroporto
Código do aeroporto EHAM

Localização: Amsterdam Airport Schiphol
Distância: 34 (km)

Metar:
EHAM 140255Z 20008KT 9999 -DZ BKN040 14/11 Q1007 NOSIG

Hora: 14-06-2024 04:55 CEST